Time;durP1;ratioP1;P1;durP2;ratioP2;P2;SDS_P1;SDS_P2;PMS_P1;PMS_P2;Temp;Humidity;BMP_temperature;BMP_pressure;BME280_temperature;BME280_humidity;BME280_pressure;Samples;Min_cycle;Max_cycle;Signal;HPM_P1;HPM_P2
2022/11/24 00:01:11;;;;;;;24.23;12.68;;;7.50;99.90;;;;;;5040299;28;20507;-87
2022/11/24 00:03:37;;;;;;;27.63;12.85;;;7.50;99.90;;;;;;5067819;28;20099;-86
2022/11/24 00:06:09;;;;;;;20.85;12.48;;;7.40;99.90;;;;;;5025747;28;20199;-87
2022/11/24 00:08:36;;;;;;;29.52;13.18;;;7.50;99.90;;;;;;5037304;28;20045;-85
2022/11/24 00:11:07;;;;;;;27.77;13.30;;;7.40;99.90;;;;;;5053429;28;20045;-86
2022/11/24 00:13:34;;;;;;;29.85;13.45;;;7.40;99.90;;;;;;5024153;28;20041;-87
2022/11/24 00:16:08;;;;;;;33.08;12.65;;;7.30;99.90;;;;;;5041649;28;20051;-85
2022/11/24 00:18:34;;;;;;;24.42;11.95;;;7.40;99.90;;;;;;5023126;28;20496;-86
2022/11/24 00:20:59;;;;;;;33.55;14.13;;;7.30;99.90;;;;;;5040294;28;20064;-85
2022/11/24 00:23:25;;;;;;;26.77;12.45;;;7.30;99.90;;;;;;5041516;28;20037;-87
2022/11/24 00:25:51;;;;;;;29.98;12.63;;;7.30;99.90;;;;;;5027931;28;20112;-87
2022/11/24 00:28:17;;;;;;;27.90;12.52;;;7.30;99.90;;;;;;5029142;28;20419;-86
2022/11/24 00:30:42;;;;;;;26.42;13.07;;;7.20;99.90;;;;;;5026578;28;20052;-86
2022/11/24 00:33:11;;;;;;;26.15;12.77;;;7.20;99.90;;;;;;5071465;28;20096;-86
2022/11/24 00:35:36;;;;;;;23.02;12.07;;;7.20;99.90;;;;;;5058103;28;20894;-87
2022/11/24 00:38:02;;;;;;;28.58;12.95;;;7.10;99.90;;;;;;5026114;28;20374;-87
2022/11/24 00:40:28;;;;;;;29.77;11.95;;;7.10;99.90;;;;;;5029521;28;20033;-87
2022/11/24 00:42:53;;;;;;;25.30;12.05;;;7.10;99.90;;;;;;5021862;28;20526;-87
2022/11/24 00:45:19;;;;;;;31.92;11.82;;;7.10;99.90;;;;;;5055520;28;20441;-87
2022/11/24 00:47:45;;;;;;;25.80;11.38;;;7.00;99.90;;;;;;5070612;28;20821;-85
2022/11/24 00:50:10;;;;;;;27.23;11.52;;;7.10;99.90;;;;;;5025512;28;20506;-87
2022/11/24 00:52:36;;;;;;;27.00;11.70;;;7.00;99.90;;;;;;5054256;28;20385;-87
2022/11/24 00:55:05;;;;;;;29.38;11.18;;;7.00;99.90;;;;;;5040343;28;20049;-87
2022/11/24 00:57:33;;;;;;;32.42;12.98;;;7.00;99.90;;;;;;5051869;28;20537;-87
2022/11/24 00:59:58;;;;;;;27.98;11.15;;;7.10;99.90;;;;;;5029000;28;20043;-87
2022/11/24 01:02:24;;;;;;;28.20;11.07;;;7.00;99.90;;;;;;5040617;28;20041;-86
2022/11/24 01:04:50;;;;;;;27.17;10.82;;;7.00;99.90;;;;;;5023353;28;20041;-87
2022/11/24 01:07:15;;;;;;;28.30;11.25;;;6.90;99.90;;;;;;5039493;28;20120;-87
2022/11/24 01:09:42;;;;;;;27.20;10.40;;;7.00;99.90;;;;;;5023724;28;20059;-85
2022/11/24 01:12:07;;;;;;;29.52;10.43;;;7.00;99.90;;;;;;5023830;28;20092;-87
2022/11/24 01:14:33;;;;;;;28.95;9.88;;;7.00;99.90;;;;;;5022849;28;20506;-87
2022/11/24 01:16:59;;;;;;;25.13;9.68;;;7.10;99.90;;;;;;5039859;28;20064;-85
2022/11/24 01:19:25;;;;;;;26.00;10.50;;;6.90;99.90;;;;;;5039719;28;20064;-87
2022/11/24 01:21:51;;;;;;;27.48;10.60;;;6.90;99.90;;;;;;5028722;28;20529;-87
2022/11/24 01:24:17;;;;;;;28.85;9.68;;;6.90;99.90;;;;;;5040004;28;20090;-86
2022/11/24 01:26:42;;;;;;;25.08;9.15;;;7.00;99.90;;;;;;5026024;28;20449;-87
2022/11/24 01:29:13;;;;;;;29.08;9.18;;;7.00;99.90;;;;;;5054260;28;20159;-87
2022/11/24 01:31:39;;;;;;;28.27;9.30;;;7.00;99.90;;;;;;5039512;28;20568;-87
2022/11/24 01:34:05;;;;;;;25.02;8.35;;;7.00;99.90;;;;;;5072217;28;20065;-87
2022/11/24 01:36:31;;;;;;;28.10;8.88;;;7.20;99.90;;;;;;5026577;28;20040;-87
2022/11/24 01:38:56;;;;;;;31.42;9.60;;;7.10;99.90;;;;;;5071341;28;20037;-87
2022/11/24 01:41:24;;;;;;;30.63;9.07;;;7.10;99.90;;;;;;5025113;28;20090;-85
2022/11/24 01:43:54;;;;;;;25.38;7.82;;;7.00;99.90;;;;;;5054159;28;20047;-86
2022/11/24 01:46:42;;;;;;;24.85;7.50;;;7.10;99.90;;;;;;5023267;28;20396;-88
2022/11/24 01:49:13;;;;;;;24.60;8.10;;;7.20;99.90;;;;;;5041350;28;20449;-86
2022/11/24 01:51:47;;;;;;;32.47;8.73;;;7.40;99.90;;;;;;5054146;28;20045;-87
2022/11/24 01:54:47;;;;;;;27.33;8.35;;;7.40;99.90;;;;;;5039370;28;20132;-87
2022/11/24 01:57:45;;;;;;;27.45;7.20;;;7.40;99.90;;;;;;5024682;28;20091;-86
2022/11/24 02:00:12;;;;;;;21.83;6.85;;;7.50;99.90;;;;;;5024403;28;20444;-87
2022/11/24 02:02:39;;;;;;;24.88;7.68;;;7.60;99.90;;;;;;5025214;28;20278;-87
2022/11/24 02:05:16;;;;;;;25.60;7.25;;;7.60;99.90;;;;;;5067317;28;20233;-87
2022/11/24 02:07:42;;;;;;;32.97;7.85;;;7.60;99.90;;;;;;5058858;28;20047;-86
2022/11/24 02:10:12;;;;;;;27.33;7.75;;;7.50;99.90;;;;;;5021887;28;20045;-87
2022/11/24 02:12:42;;;;;;;28.92;7.30;;;7.60;99.90;;;;;;5051800;28;20041;-87
2022/11/24 02:15:09;;;;;;;26.05;7.15;;;7.60;99.90;;;;;;5053657;28;20063;-86
2022/11/24 02:17:35;;;;;;;19.60;7.13;;;7.60;99.90;;;;;;5053665;28;20488;-86
2022/11/24 02:20:06;;;;;;;23.98;6.57;;;7.60;99.90;;;;;;5024377;28;20091;-87
2022/11/24 02:22:36;;;;;;;28.23;6.53;;;7.60;99.90;;;;;;5022657;28;20388;-87
2022/11/24 02:25:35;;;;;;;23.67;6.88;;;7.60;99.90;;;;;;5022060;28;20051;-87
2022/11/24 02:28:06;;;;;;;24.55;6.85;;;7.40;99.90;;;;;;5040565;28;20484;-88
2022/11/24 02:30:32;;;;;;;23.05;6.38;;;7.30;99.90;;;;;;5054406;28;20075;-87
2022/11/24 02:32:58;;;;;;;26.20;6.28;;;7.30;99.90;;;;;;5023370;28;20041;-87
2022/11/24 02:35:26;;;;;;;26.60;6.40;;;7.30;99.90;;;;;;5069794;28;20057;-88
2022/11/24 02:37:52;;;;;;;24.30;6.75;;;7.20;99.90;;;;;;5055016;28;20033;-87
2022/11/24 02:40:24;;;;;;;26.15;7.63;;;7.10;99.90;;;;;;5019947;28;20274;-88
2022/11/24 02:42:55;;;;;;;26.15;6.43;;;7.20;99.90;;;;;;5071543;28;20048;-87
2022/11/24 02:45:22;;;;;;;23.60;6.53;;;7.10;99.90;;;;;;5051893;28;20048;-88
2022/11/24 02:47:48;;;;;;;23.55;5.97;;;7.20;99.90;;;;;;5024296;28;20040;-88
2022/11/24 02:50:17;;;;;;;19.90;5.57;;;7.10;99.90;;;;;;5040190;28;20609;-87
2022/11/24 02:52:43;;;;;;;29.52;6.50;;;7.10;99.90;;;;;;5040175;28;20307;-87
2022/11/24 02:55:08;;;;;;;23.92;7.45;;;7.10;99.90;;;;;;5022443;28;20403;-87
2022/11/24 02:57:34;;;;;;;18.40;5.32;;;7.20;99.90;;;;;;5022400;28;20033;-87
2022/11/24 03:00:00;;;;;;;25.98;6.40;;;7.20;99.90;;;;;;5058159;28;20056;-87
2022/11/24 03:02:29;;;;;;;23.08;6.30;;;7.20;99.90;;;;;;5025382;28;20120;-87
2022/11/24 03:04:57;;;;;;;23.83;5.43;;;7.20;99.90;;;;;;5022666;28;20041;-87
2022/11/24 03:07:23;;;;;;;22.85;6.25;;;7.10;99.90;;;;;;5022291;28;20870;-88
2022/11/24 03:09:48;;;;;;;31.48;7.07;;;7.10;99.90;;;;;;5022424;28;20028;-87
2022/11/24 03:12:14;;;;;;;29.45;7.28;;;7.20;99.90;;;;;;5050768;28;20103;-88
2022/11/24 03:14:40;;;;;;;27.77;5.90;;;7.20;99.90;;;;;;5040406;28;20052;-86
2022/11/24 03:17:06;;;;;;;28.70;7.13;;;7.10;99.90;;;;;;5054617;28;20033;-87
2022/11/24 03:19:32;;;;;;;25.52;6.20;;;7.20;99.90;;;;;;5038765;28;20065;-88
2022/11/24 03:22:01;;;;;;;22.10;6.03;;;7.20;99.90;;;;;;5021754;28;20495;-86
2022/11/24 03:24:27;;;;;;;24.08;6.00;;;7.20;99.90;;;;;;5039511;28;20075;-87
2022/11/24 03:26:52;;;;;;;25.23;5.93;;;7.20;99.90;;;;;;5057025;28;20508;-87
2022/11/24 03:29:21;;;;;;;19.75;5.40;;;7.30;99.90;;;;;;5022101;28;20079;-86
2022/11/24 03:31:47;;;;;;;26.02;5.72;;;7.30;99.90;;;;;;5021242;28;20044;-86
2022/11/24 03:34:13;;;;;;;26.70;5.65;;;7.30;99.90;;;;;;5040454;28;20048;-86
2022/11/24 03:36:38;;;;;;;25.83;5.40;;;7.30;99.90;;;;;;5036745;28;20377;-87
2022/11/24 03:39:04;;;;;;;31.55;7.30;;;7.40;99.90;;;;;;5054362;28;20029;-87
2022/11/24 03:41:30;;;;;;;22.27;6.93;;;7.40;99.90;;;;;;5029719;28;20063;-87
2022/11/24 03:43:56;;;;;;;26.50;5.57;;;7.40;99.90;;;;;;5026721;28;20029;-86
2022/11/24 03:46:21;;;;;;;30.23;6.00;;;7.40;99.90;;;;;;5044583;28;20347;-87
2022/11/24 03:48:47;;;;;;;23.67;5.57;;;7.30;99.90;;;;;;5056064;28;20044;-86
2022/11/24 03:51:13;;;;;;;25.48;6.13;;;7.40;99.90;;;;;;5055068;28;20033;-87
2022/11/24 03:53:38;;;;;;;27.48;5.78;;;7.30;99.90;;;;;;5024158;28;20854;-86
2022/11/24 03:56:04;;;;;;;25.35;5.25;;;7.20;99.90;;;;;;5044632;28;20045;-87
2022/11/24 03:58:31;;;;;;;23.48;6.05;;;7.30;99.90;;;;;;5029990;28;20071;-87
2022/11/24 04:00:56;;;;;;;25.63;5.72;;;7.30;99.90;;;;;;5055177;28;20028;-86
2022/11/24 04:03:23;;;;;;;19.38;5.15;;;7.20;99.90;;;;;;5028170;28;20480;-87
2022/11/24 04:05:49;;;;;;;30.92;6.13;;;7.10;99.90;;;;;;5040521;28;20415;-87
2022/11/24 04:08:15;;;;;;;19.65;5.18;;;7.10;99.90;;;;;;5026329;28;20083;-86
2022/11/24 04:10:41;;;;;;;24.58;5.80;;;7.10;99.90;;;;;;5023173;28;20530;-86
2022/11/24 04:13:13;;;;;;;19.40;4.22;;;7.00;99.90;;;;;;5021589;28;20075;-86
2022/11/24 04:15:40;;;;;;;22.38;5.30;;;7.00;99.90;;;;;;5055361;28;20147;-86
2022/11/24 04:18:06;;;;;;;17.25;4.95;;;6.90;99.90;;;;;;5040491;28;20451;-87
2022/11/24 04:20:32;;;;;;;22.45;5.25;;;7.10;99.90;;;;;;5074582;28;20037;-87
2022/11/24 04:22:58;;;;;;;23.98;4.85;;;7.00;99.90;;;;;;5021328;28;20056;-87
2022/11/24 04:25:23;;;;;;;23.85;5.28;;;7.00;99.90;;;;;;5025090;28;20088;-86
2022/11/24 04:27:53;;;;;;;20.70;5.25;;;7.00;99.90;;;;;;5040665;28;20037;-87
2022/11/24 04:30:20;;;;;;;22.10;4.80;;;7.00;99.90;;;;;;5025694;28;20111;-87
2022/11/24 04:32:46;;;;;;;28.35;5.15;;;7.10;99.90;;;;;;5025263;28;20049;-86
2022/11/24 04:35:12;;;;;;;20.15;4.38;;;7.10;99.90;;;;;;5027565;28;20462;-85
2022/11/24 04:37:38;;;;;;;27.10;5.28;;;7.00;99.90;;;;;;5024311;28;20048;-87
2022/11/24 04:40:05;;;;;;;17.52;4.57;;;7.00;99.90;;;;;;5024683;28;20039;-87
2022/11/24 04:42:31;;;;;;;31.33;5.22;;;7.00;99.90;;;;;;5056036;28;20399;-87
2022/11/24 04:44:57;;;;;;;18.67;4.93;;;7.00;99.90;;;;;;5054153;28;20040;-86
2022/11/24 04:47:24;;;;;;;21.95;4.90;;;7.00;99.90;;;;;;5023950;28;20229;-86
2022/11/24 04:49:50;;;;;;;17.33;4.55;;;6.90;99.90;;;;;;5023543;28;20045;-87
2022/11/24 04:52:18;;;;;;;27.42;4.40;;;6.80;99.90;;;;;;5024814;28;20053;-86
2022/11/24 04:54:44;;;;;;;25.27;4.38;;;6.80;99.90;;;;;;5069798;28;20045;-87
2022/11/24 04:57:18;;;;;;;20.77;5.15;;;6.80;99.90;;;;;;5023311;28;20048;-87
2022/11/24 04:59:44;;;;;;;19.45;5.03;;;6.80;99.90;;;;;;5052754;28;20040;-86
2022/11/24 05:02:11;;;;;;;21.67;4.15;;;6.80;99.90;;;;;;5024240;28;20230;-87
2022/11/24 05:04:36;;;;;;;21.02;5.15;;;6.80;99.90;;;;;;5027019;28;20120;-87
2022/11/24 05:07:05;;;;;;;25.73;4.53;;;6.80;99.90;;;;;;5027897;28;20542;-87
2022/11/24 05:09:31;;;;;;;22.45;4.80;;;6.80;99.90;;;;;;5024458;28;20040;-87
2022/11/24 05:11:57;;;;;;;22.88;4.32;;;6.70;99.90;;;;;;5039986;28;20041;-87
2022/11/24 05:14:22;;;;;;;20.17;4.65;;;6.60;99.90;;;;;;5025843;28;20040;-87
2022/11/24 05:16:48;;;;;;;22.65;4.30;;;6.70;99.90;;;;;;5024517;28;20053;-86
2022/11/24 05:19:14;;;;;;;21.95;3.85;;;6.70;99.90;;;;;;5022250;28;20036;-86
2022/11/24 05:21:40;;;;;;;19.90;5.13;;;6.70;99.90;;;;;;5018576;28;20036;-87
2022/11/24 05:24:05;;;;;;;20.55;4.68;;;6.60;99.90;;;;;;5053293;28;20036;-86
2022/11/24 05:26:34;;;;;;;22.55;4.82;;;6.70;99.90;;;;;;5042419;28;20503;-87
2022/11/24 05:29:00;;;;;;;23.30;4.90;;;6.60;99.90;;;;;;5025161;28;20033;-87
2022/11/24 05:31:25;;;;;;;21.55;4.70;;;6.60;99.90;;;;;;5024373;28;20044;-86
2022/11/24 05:33:51;;;;;;;25.92;5.18;;;6.50;99.90;;;;;;5026124;28;20094;-85
2022/11/24 05:39:07;;;;;;;23.50;5.18;;;6.60;99.90;;;;;;5071832;28;20650;-86
2022/11/24 05:41:33;;;;;;;24.23;4.55;;;6.70;99.90;;;;;;5027383;28;20132;-86
2022/11/24 05:43:58;;;;;;;20.88;5.45;;;6.60;99.90;;;;;;5022742;28;20555;-86
2022/11/24 05:46:25;;;;;;;28.40;4.50;;;6.60;99.90;;;;;;5023839;28;20044;-87
2022/11/24 05:48:50;;;;;;;24.58;4.53;;;6.60;99.90;;;;;;5038873;28;20049;-87
2022/11/24 05:51:16;;;;;;;19.95;4.80;;;6.60;99.90;;;;;;5023550;28;20098;-86
2022/11/24 05:53:45;;;;;;;23.38;4.80;;;6.60;99.90;;;;;;5028244;28;20540;-87
2022/11/24 05:56:11;;;;;;;21.48;4.75;;;6.50;99.90;;;;;;5024070;28;20037;-87
2022/11/24 05:58:36;;;;;;;20.88;4.20;;;6.60;99.90;;;;;;5021442;28;20043;-86
2022/11/24 06:01:05;;;;;;;23.75;4.45;;;6.50;99.90;;;;;;5025994;28;20032;-87
2022/11/24 06:03:31;;;;;;;18.70;4.53;;;6.50;99.90;;;;;;5054525;28;20453;-86
2022/11/24 06:05:56;;;;;;;23.20;5.10;;;6.60;99.90;;;;;;5039759;28;20119;-86
2022/11/24 06:08:25;;;;;;;22.20;5.25;;;6.60;99.90;;;;;;5020511;28;20476;-86
2022/11/24 06:10:50;;;;;;;21.08;4.57;;;6.50;99.90;;;;;;5026112;28;20066;-87
2022/11/24 06:13:16;;;;;;;23.52;4.47;;;6.50;99.90;;;;;;5022370;28;20043;-87
2022/11/24 06:15:42;;;;;;;20.13;4.90;;;6.50;99.90;;;;;;5070236;28;20261;-87
2022/11/24 06:18:07;;;;;;;27.83;4.75;;;6.60;99.90;;;;;;5043161;28;20381;-87
2022/11/24 06:20:33;;;;;;;19.05;4.10;;;6.40;99.90;;;;;;5024602;28;20097;-87
2022/11/24 06:23:00;;;;;;;23.02;4.60;;;6.60;99.90;;;;;;5023639;28;20048;-87
2022/11/24 06:25:26;;;;;;;20.45;4.03;;;6.50;99.90;;;;;;5022987;28;20255;-86
2022/11/24 06:27:52;;;;;;;20.58;4.05;;;6.60;99.90;;;;;;5040634;28;20037;-87
2022/11/24 06:30:18;;;;;;;21.83;3.72;;;6.60;99.90;;;;;;5022681;28;20742;-86
2022/11/24 06:32:45;;;;;;;15.73;3.67;;;6.50;99.90;;;;;;5024807;28;20064;-86
2022/11/24 06:35:13;;;;;;;23.17;3.55;;;6.60;99.90;;;;;;5021552;28;20033;-87
2022/11/24 06:37:39;;;;;;;18.55;3.58;;;6.60;99.90;;;;;;5070906;28;20488;-87
2022/11/24 06:40:09;;;;;;;22.65;4.60;;;6.50;99.90;;;;;;5070247;28;20736;-87
2022/11/24 06:42:35;;;;;;;20.88;4.10;;;6.60;99.90;;;;;;5021747;28;20414;-87
2022/11/24 06:45:01;;;;;;;14.65;3.15;;;6.60;99.90;;;;;;5024020;28;20356;-87
2022/11/24 06:47:26;;;;;;;7.50;3.08;;;6.50;99.90;;;;;;5020328;28;20278;-86
2022/11/24 06:49:52;;;;;;;13.00;3.20;;;6.50;99.90;;;;;;5040031;28;20045;-85
2022/11/24 06:52:18;;;;;;;14.15;3.47;;;6.60;99.90;;;;;;5038408;28;20538;-87
2022/11/24 06:54:43;;;;;;;12.63;3.83;;;6.70;99.90;;;;;;5064088;28;20049;-86
2022/11/24 06:57:09;;;;;;;14.90;3.90;;;6.70;99.90;;;;;;5025253;28;20068;-87
2022/11/24 06:59:38;;;;;;;11.00;3.97;;;6.70;99.90;;;;;;5023452;28;20083;-86
2022/11/24 07:02:03;;;;;;;18.42;4.18;;;6.70;99.90;;;;;;5037739;28;20423;-87
2022/11/24 07:04:29;;;;;;;22.45;4.30;;;6.60;99.90;;;;;;5054631;28;20037;-86
2022/11/24 07:06:55;;;;;;;19.13;4.22;;;6.70;99.90;;;;;;5032921;28;20124;-86
2022/11/24 07:09:20;;;;;;;14.13;4.13;;;6.70;99.90;;;;;;5019763;28;20037;-86
2022/11/24 07:11:46;;;;;;;17.40;4.10;;;6.70;99.90;;;;;;5051158;28;20044;-86
2022/11/24 07:14:11;;;;;;;26.48;5.00;;;6.80;99.90;;;;;;5022724;28;20047;-87
2022/11/24 07:16:38;;;;;;;22.30;4.10;;;6.80;99.90;;;;;;5025640;28;20037;-87
2022/11/24 07:19:04;;;;;;;14.20;4.03;;;6.80;99.90;;;;;;5040990;28;20041;-87
2022/11/24 07:21:30;;;;;;;17.60;4.25;;;6.80;99.90;;;;;;5073121;28;20040;-86
2022/11/24 07:23:56;;;;;;;14.15;3.63;;;6.70;99.90;;;;;;5025766;28;20558;-87
2022/11/24 07:26:23;;;;;;;17.20;3.95;;;6.80;99.90;;;;;;5043608;28;20262;-87
2022/11/24 07:28:49;;;;;;;16.08;3.90;;;6.80;99.90;;;;;;5044660;28;20041;-87
2022/11/24 07:31:17;;;;;;;20.92;4.53;;;6.90;99.90;;;;;;5057333;28;20037;-85
2022/11/24 07:33:51;;;;;;;19.10;3.97;;;6.80;99.90;;;;;;5039565;28;20037;-86
2022/11/24 07:36:17;;;;;;;18.35;4.55;;;6.80;99.90;;;;;;5071775;28;20045;-85
2022/11/24 07:38:42;;;;;;;18.65;4.20;;;6.70;99.90;;;;;;5040384;28;20361;-87
2022/11/24 07:41:14;;;;;;;20.92;4.18;;;6.70;99.90;;;;;;5022697;28;20452;-87
2022/11/24 07:43:40;;;;;;;20.15;4.32;;;6.70;99.90;;;;;;5044515;28;20297;-87
2022/11/24 07:46:12;;;;;;;17.02;5.30;;;6.70;99.90;;;;;;5024890;28;20399;-87
2022/11/24 07:48:38;;;;;;;21.80;4.90;;;6.80;99.90;;;;;;5025118;28;20488;-86
2022/11/24 07:51:08;;;;;;;16.45;3.95;;;6.80;99.90;;;;;;5025558;28;20324;-87
2022/11/24 07:53:34;;;;;;;21.15;4.93;;;6.80;99.90;;;;;;5021404;28;20052;-86
2022/11/24 07:56:02;;;;;;;21.95;4.85;;;6.70;99.90;;;;;;5022179;28;20029;-87
2022/11/24 07:58:29;;;;;;;20.67;5.40;;;6.80;99.90;;;;;;5024093;28;20041;-87
2022/11/24 08:00:58;;;;;;;17.05;4.78;;;6.90;99.90;;;;;;5054286;28;20036;-86
2022/11/24 08:03:24;;;;;;;17.85;4.40;;;6.90;99.90;;;;;;5041706;28;20092;-85
2022/11/24 08:05:58;;;;;;;16.65;4.47;;;7.00;99.90;;;;;;5038506;28;20085;-86
2022/11/24 08:08:24;;;;;;;18.77;5.05;;;7.00;99.90;;;;;;5038657;28;20087;-87
2022/11/24 08:10:50;;;;;;;23.13;5.43;;;7.10;99.90;;;;;;5025374;28;20037;-87
2022/11/24 08:13:16;;;;;;;22.73;5.80;;;7.10;99.90;;;;;;5040462;28;20052;-87
2022/11/24 08:15:42;;;;;;;16.90;5.72;;;7.30;99.90;;;;;;5057463;28;20048;-87
2022/11/24 08:18:07;;;;;;;19.48;5.35;;;7.40;99.90;;;;;;5026922;28;20037;-86
2022/11/24 08:20:33;;;;;;;20.85;5.53;;;7.40;99.90;;;;;;5023879;28;20063;-86
2022/11/24 08:22:59;;;;;;;19.80;5.30;;;7.40;99.90;;;;;;5056448;28;20040;-86
2022/11/24 08:25:31;;;;;;;22.73;6.25;;;7.50;99.90;;;;;;5039947;28;20045;-87
2022/11/24 08:27:58;;;;;;;21.20;5.05;;;7.40;99.90;;;;;;5023518;28;20140;-86
2022/11/24 08:30:23;;;;;;;16.35;4.90;;;7.50;99.90;;;;;;5070260;28;20095;-86
2022/11/24 08:32:49;;;;;;;17.30;5.53;;;7.60;99.90;;;;;;5023452;28;20045;-86
2022/11/24 08:35:15;;;;;;;21.23;5.78;;;7.60;99.90;;;;;;5042013;28;20049;-86
2022/11/24 08:37:40;;;;;;;18.60;5.45;;;7.60;99.90;;;;;;5038337;28;20459;-87
2022/11/24 08:40:09;;;;;;;13.65;5.03;;;7.60;99.90;;;;;;5023313;28;20166;-86
2022/11/24 08:42:35;;;;;;;16.73;5.57;;;7.70;99.90;;;;;;5040639;28;20413;-85
2022/11/24 08:45:00;;;;;;;17.42;5.43;;;7.70;99.90;;;;;;5023506;28;20079;-87
2022/11/24 08:47:26;;;;;;;17.05;5.68;;;7.70;99.90;;;;;;5038539;28;20045;-87
2022/11/24 08:49:52;;;;;;;16.90;5.50;;;7.80;99.90;;;;;;5038180;28;20102;-87
2022/11/24 08:52:17;;;;;;;21.88;5.93;;;7.90;99.90;;;;;;5022294;28;20052;-86
2022/11/24 08:54:43;;;;;;;18.77;5.10;;;7.90;99.90;;;;;;5040238;28;20135;-87
2022/11/24 08:57:10;;;;;;;16.60;5.30;;;7.90;99.90;;;;;;5039750;28;20051;-86
2022/11/24 08:59:36;;;;;;;17.70;6.20;;;7.90;99.90;;;;;;5024734;28;20033;-86
2022/11/24 09:02:01;;;;;;;15.80;4.78;;;7.90;99.90;;;;;;5035188;28;20098;-88
2022/11/24 09:04:27;;;;;;;14.10;5.03;;;8.00;99.90;;;;;;5022775;28;20033;-88
2022/11/24 09:06:53;;;;;;;12.98;5.22;;;8.10;99.90;;;;;;5070996;28;20346;-86
2022/11/24 09:09:18;;;;;;;15.68;5.57;;;8.30;99.90;;;;;;5021749;28;20041;-87
2022/11/24 09:11:44;;;;;;;16.75;4.95;;;8.30;99.90;;;;;;5022339;28;20094;-85
2022/11/24 09:14:09;;;;;;;16.30;5.57;;;8.40;99.90;;;;;;5025441;28;20128;-86
2022/11/24 09:16:38;;;;;;;17.33;5.18;;;8.50;99.90;;;;;;5025317;28;20475;-87
2022/11/24 09:19:06;;;;;;;11.98;4.72;;;8.50;99.90;;;;;;5029456;28;20503;-85
2022/11/24 09:21:36;;;;;;;14.45;4.90;;;8.70;99.90;;;;;;5072198;28;20568;-86
2022/11/24 09:24:02;;;;;;;11.30;4.88;;;8.70;99.90;;;;;;5069539;28;20033;-86
2022/11/24 09:26:33;;;;;;;17.42;5.10;;;8.70;99.90;;;;;;5020693;28;20542;-87
2022/11/24 09:29:00;;;;;;;12.48;4.93;;;8.70;99.90;;;;;;5024263;28;20109;-85
2022/11/24 09:31:33;;;;;;;14.82;4.95;;;8.70;99.90;;;;;;5023462;28;20040;-87
2022/11/24 09:34:03;;;;;;;12.07;4.45;;;8.60;99.90;;;;;;5070656;28;20129;-86
2022/11/24 09:36:30;;;;;;;9.40;4.28;;;8.60;99.90;;;;;;5018327;28;20028;-85
2022/11/24 09:38:56;;;;;;;11.77;4.47;;;8.60;99.90;;;;;;5021565;28;20120;-87
2022/11/24 09:41:39;;;;;;;10.98;3.78;;;8.60;99.90;;;;;;5021469;28;20085;-86
2022/11/24 09:44:16;;;;;;;7.93;3.45;;;8.60;99.90;;;;;;5071239;28;20091;-86
2022/11/24 09:47:09;;;;;;;9.57;3.80;;;8.50;99.90;;;;;;5023395;28;20045;-86
2022/11/24 09:49:49;;;;;;;11.95;4.18;;;8.60;99.90;;;;;;5019718;28;20051;-86
2022/11/24 09:52:21;;;;;;;7.03;3.42;;;8.60;99.90;;;;;;5026398;28;20352;-87
2022/11/24 09:54:59;;;;;;;8.70;3.40;;;8.60;99.90;;;;;;5019988;28;20095;-86
2022/11/24 09:57:27;;;;;;;8.00;3.72;;;8.60;99.90;;;;;;5022429;28;20033;-86
2022/11/24 10:00:00;;;;;;;9.38;3.30;;;8.70;99.90;;;;;;5036308;28;20094;-86
2022/11/24 10:02:26;;;;;;;9.10;3.70;;;8.70;99.90;;;;;;5066100;28;20040;-86
2022/11/24 10:04:53;;;;;;;6.85;3.17;;;8.70;99.90;;;;;;5025825;28;20486;-86
2022/11/24 10:07:32;;;;;;;8.00;3.00;;;8.80;99.90;;;;;;5037765;28;20404;-86
2022/11/24 10:10:24;;;;;;;8.40;2.90;;;8.90;99.90;;;;;;5036746;28;20045;-86
2022/11/24 10:13:03;;;;;;;7.55;2.78;;;8.90;99.90;;;;;;5023496;28;20497;-86
2022/11/24 10:15:32;;;;;;;8.40;3.05;;;8.90;99.90;;;;;;5019771;28;20033;-87
2022/11/24 10:18:10;;;;;;;7.70;2.60;;;9.00;99.90;;;;;;5069225;28;20049;-86
2022/11/24 10:20:54;;;;;;;8.85;2.60;;;8.90;99.90;;;;;;5053201;28;20489;-86
2022/11/24 10:23:42;;;;;;;11.00;2.80;;;9.00;99.90;;;;;;5052029;28;20617;-86
2022/11/24 10:26:18;;;;;;;4.50;2.35;;;9.00;99.90;;;;;;5054697;28;20044;-86
2022/11/24 10:28:46;;;;;;;7.88;2.72;;;9.10;99.90;;;;;;5051306;28;20156;-86
2022/11/24 10:31:23;;;;;;;7.90;2.60;;;9.20;99.90;;;;;;5023055;28;20293;-86
2022/11/24 10:33:50;;;;;;;7.38;2.58;;;9.20;99.90;;;;;;5033932;28;20049;-86
2022/11/24 10:36:36;;;;;;;7.00;2.67;;;9.20;99.90;;;;;;5021402;28;20073;-86
2022/11/24 10:39:22;;;;;;;7.32;2.58;;;9.30;99.90;;;;;;5070172;28;20361;-86
2022/11/24 10:42:14;;;;;;;5.68;2.38;;;9.30;99.90;;;;;;5021308;28;20555;-86
2022/11/24 10:44:42;;;;;;;6.00;2.53;;;9.50;99.90;;;;;;5033564;28;20053;-85
2022/11/24 10:47:21;;;;;;;7.38;2.45;;;9.60;99.90;;;;;;5035903;28;20099;-85
2022/11/24 10:50:10;;;;;;;6.60;2.53;;;9.70;99.90;;;;;;5050217;28;20243;-86
2022/11/24 10:52:59;;;;;;;5.25;2.42;;;9.80;99.90;;;;;;5029676;28;20102;-86
2022/11/24 10:55:25;;;;;;;8.10;2.83;;;9.80;99.90;;;;;;5067952;28;20091;-86
2022/11/24 10:57:50;;;;;;;6.88;2.92;;;9.70;99.90;;;;;;5054429;28;20048;-86
2022/11/24 11:00:19;;;;;;;7.68;2.72;;;9.60;99.90;;;;;;5021067;28;20403;-85
2022/11/24 11:02:49;;;;;;;9.00;2.58;;;9.60;99.90;;;;;;5021729;28;20068;-86
2022/11/24 11:05:40;;;;;;;9.15;3.35;;;9.50;99.90;;;;;;5028553;28;20041;-86
2022/11/24 11:08:12;;;;;;;6.38;2.90;;;9.40;99.90;;;;;;5035869;28;20056;-86
2022/11/24 11:10:39;;;;;;;10.05;3.20;;;9.40;99.90;;;;;;5024409;28;20412;-85
2022/11/24 11:13:31;;;;;;;7.72;3.03;;;9.40;99.90;;;;;;5038565;28;20115;-85
2022/11/24 11:15:58;;;;;;;7.28;3.35;;;9.40;99.90;;;;;;5020169;28;20041;-85
2022/11/24 11:18:34;;;;;;;8.43;3.05;;;9.40;99.90;;;;;;5019131;28;20037;-85
2022/11/24 11:21:02;;;;;;;9.20;3.63;;;9.50;99.90;;;;;;5022067;28;20029;-86
2022/11/24 11:23:34;;;;;;;10.40;3.85;;;9.50;99.90;;;;;;5019502;28;20522;-86
2022/11/24 11:26:27;;;;;;;5.88;3.25;;;9.50;99.90;;;;;;5035594;28;20037;-86
2022/11/24 11:29:12;;;;;;;6.93;3.22;;;9.50;99.90;;;;;;5052153;28;20510;-86
2022/11/24 11:31:38;;;;;;;8.02;3.40;;;9.60;99.90;;;;;;5020701;28;20040;-86
2022/11/24 11:34:13;;;;;;;6.80;3.38;;;9.60;99.90;;;;;;5033625;28;20477;-85
2022/11/24 11:36:44;;;;;;;8.52;3.83;;;9.60;99.90;;;;;;5067271;28;20814;-84
2022/11/24 11:39:22;;;;;;;10.27;3.60;;;9.70;99.90;;;;;;5051286;28;20033;-85
2022/11/24 11:41:57;;;;;;;13.30;3.95;;;9.70;99.90;;;;;;5025638;28;20158;-85
2022/11/24 11:44:40;;;;;;;11.68;3.60;;;9.80;99.90;;;;;;5021787;28;21053;-84
2022/11/24 11:47:25;;;;;;;21.23;5.28;;;9.90;99.90;;;;;;5038988;28;20037;-85
2022/11/24 11:49:52;;;;;;;44.42;8.40;;;10.00;99.90;;;;;;5068751;28;20116;-85
2022/11/24 11:52:48;;;;;;;24.05;4.78;;;10.00;99.90;;;;;;5017866;28;20053;-85
2022/11/24 11:56:11;;;;;;;21.42;4.78;;;10.10;99.90;;;;;;5036700;28;20041;-85
2022/11/24 11:59:05;;;;;;;8.57;3.08;;;10.20;99.90;;;;;;4991813;28;20034;-85
2022/11/24 12:01:30;;;;;;;7.43;2.72;;;10.20;99.90;;;;;;4994292;28;20045;-85
2022/11/24 12:04:14;;;;;;;8.50;2.78;;;10.30;99.90;;;;;;5008177;28;20500;-85
2022/11/24 12:06:49;;;;;;;9.50;4.00;;;10.30;99.90;;;;;;5020080;28;20036;-85
2022/11/24 12:09:20;;;;;;;;;;;10.40;99.90;;;;;;5022640;28;20391;-85
2022/11/24 12:12:18;;;;;;;7.40;3.10;;;10.40;99.90;;;;;;5054142;28;20464;-86
2022/11/24 12:15:05;;;;;;;7.80;3.00;;;10.40;99.90;;;;;;5009941;28;20068;-86
2022/11/24 12:17:38;;;;;;;10.50;3.33;;;10.50;99.90;;;;;;5023698;28;20043;-85
2022/11/24 12:20:39;;;;;;;9.55;3.47;;;10.50;99.90;;;;;;5036987;28;20037;-85
2022/11/24 12:23:17;;;;;;;8.43;3.08;;;10.60;99.90;;;;;;5050414;28;20064;-85
2022/11/24 12:25:54;;;;;;;8.52;3.03;;;10.60;99.90;;;;;;5038537;28;20029;-84
2022/11/24 12:28:31;;;;;;;9.45;3.22;;;10.60;99.90;;;;;;5025001;28;20049;-85
2022/11/24 12:31:04;;;;;;;9.40;3.20;;;10.60;99.90;;;;;;5025850;28;20048;-85
2022/11/24 12:34:23;;;;;;;14.38;4.20;;;10.50;99.90;;;;;;5022558;28;20533;-86
2022/11/24 12:36:48;;;;;;;16.23;3.65;;;10.50;99.90;;;;;;4981887;28;20281;-85
2022/11/24 12:39:43;;;;;;;20.83;4.22;;;10.60;99.90;;;;;;4983734;28;20570;-86
2022/11/24 12:42:44;;;;;;;17.90;3.67;;;10.60;99.90;;;;;;5011347;28;20049;-85
2022/11/24 12:45:30;;;;;;;20.00;4.15;;;10.60;99.90;;;;;;5024731;28;20448;-86
2022/11/24 12:48:20;;;;;;;9.55;2.90;;;10.60;99.90;;;;;;5041139;28;20036;-86
2022/11/24 12:50:52;;;;;;;12.73;3.20;;;10.60;99.90;;;;;;5021703;28;20681;-85
2022/11/24 12:53:32;;;;;;;20.60;4.10;;;10.60;99.90;;;;;;5052514;28;20084;-86
2022/11/24 12:56:06;;;;;;;27.35;5.00;;;10.70;99.90;;;;;;5068390;28;20042;-85
2022/11/24 12:58:49;;;;;;;20.48;4.50;;;10.60;99.90;;;;;;5024494;28;20045;-85
2022/11/24 13:01:20;;;;;;;16.23;4.80;;;10.70;99.90;;;;;;5022261;28;20048;-85
2022/11/24 13:04:15;;;;;;;11.70;3.50;;;10.70;99.90;;;;;;5038006;28;20056;-85
2022/11/24 13:06:54;;;;;;;10.73;2.85;;;10.70;99.90;;;;;;5055984;28;20045;-86